Terminal Aerodrome Forecast
Issued by NWS

Home | Current Version | Previous Version | Text Only | Print | Product List | Glossary On
Versions: 1 2 3 4 5 6 7 8 9 10 11 12 13 14 15 16
000
FTUS44 KEPZ 281131
TAFLRU
TAF
KLRU 281131Z 2812/2912 01005KT P6SM FEW100 SCT250
     FM281700 15005KT P6SM FEW070 FEW250
     FM282300 21011KT P6SM VCTS SCT060CB SCT250
     FM290600 09007KT P6SM SCT250=

USA.gov is the U.S. government's official web portal to all federal, state and local government web resources and services.